createdAt,value
2018-01-15T00:00:08.219Z,98.90
2018-01-15T00:02:38.662Z,98.70
2018-01-15T00:05:08.743Z,98.70
2018-01-15T00:07:38.440Z,98.90
2018-01-15T00:10:08.146Z,99.20
2018-01-15T00:12:37.842Z,99.10
2018-01-15T00:15:07.574Z,99.00
2018-01-15T00:17:37.273Z,98.90
2018-01-15T00:20:06.982Z,98.90
2018-01-15T00:22:36.721Z,99.00
2018-01-15T00:25:06.458Z,99.30
2018-01-15T00:27:36.150Z,99.40
2018-01-15T00:30:06.649Z,99.50
2018-01-15T00:32:36.653Z,99.50
2018-01-15T00:35:06.356Z,99.30
2018-01-15T00:37:36.053Z,99.60
2018-01-15T00:40:05.792Z,99.90
2018-01-15T00:42:36.687Z,99.90
2018-01-15T00:45:06.384Z,99.90
2018-01-15T00:47:36.089Z,99.90
2018-01-15T00:50:06.550Z,99.90
2018-01-15T00:52:36.251Z,99.90
2018-01-15T00:55:06.853Z,99.90
2018-01-15T00:57:37.366Z,99.90
2018-01-15T01:00:07.122Z,99.90
2018-01-15T01:02:37.660Z,99.50
2018-01-15T01:05:08.756Z,99.10
2018-01-15T01:07:39.253Z,99.00
2018-01-15T01:10:08.978Z,99.00
2018-01-15T01:12:38.758Z,99.00
2018-01-15T01:15:08.481Z,99.20
2018-01-15T01:17:38.157Z,98.80
2018-01-15T01:20:07.865Z,98.70
2018-01-15T01:22:37.614Z,98.40
2018-01-15T01:25:07.306Z,98.30
2018-01-15T01:27:37.017Z,98.10
2018-01-15T01:30:06.732Z,98.40
2018-01-15T01:32:37.328Z,98.40
2018-01-15T01:35:07.038Z,98.50
2018-01-15T01:37:36.741Z,98.50
2018-01-15T01:40:06.440Z,98.10
2018-01-15T01:42:36.941Z,98.30
2018-01-15T01:45:06.505Z,98.30
2018-01-15T01:47:36.214Z,98.60
2018-01-15T01:50:05.925Z,98.20
2018-01-15T01:52:35.661Z,97.60
2018-01-15T01:55:05.689Z,98.00
2018-01-15T01:57:35.473Z,98.10
2018-01-15T02:00:05.181Z,97.90
2018-01-15T02:02:34.917Z,97.90
2018-01-15T02:05:04.646Z,97.60
2018-01-15T02:07:34.428Z,97.20
2018-01-15T02:10:04.174Z,97.10
2018-01-15T02:12:34.641Z,97.20
2018-01-15T02:15:04.405Z,97.10
2018-01-15T02:17:34.918Z,97.60
2018-01-15T02:20:04.609Z,97.60
2018-01-15T02:22:34.343Z,97.10
2018-01-15T02:25:04.045Z,97.20
2018-01-15T02:27:33.776Z,96.70
2018-01-15T02:30:04.272Z,96.30
2018-01-15T02:32:34.297Z,96.30
2018-01-15T02:35:03.989Z,96.50
2018-01-15T02:37:33.702Z,96.50
2018-01-15T02:40:03.410Z,96.80
2018-01-15T02:42:33.141Z,96.60
2018-01-15T02:45:02.857Z,96.70
2018-01-15T02:47:32.587Z,96.40
2018-01-15T02:50:03.044Z,96.30
2018-01-15T02:52:34.455Z,96.30
2018-01-15T02:55:04.299Z,96.30
2018-01-15T02:57:34.006Z,96.50
2018-01-15T03:00:03.734Z,96.20
2018-01-15T03:02:33.436Z,96.50
2018-01-15T03:05:03.122Z,96.00
2018-01-15T03:07:33.585Z,96.30
2018-01-15T03:10:04.779Z,96.30
2018-01-15T03:12:35.305Z,96.40
2018-01-15T03:15:05.778Z,95.80
2018-01-15T03:17:35.489Z,95.80
2018-01-15T03:20:05.238Z,96.10
2018-01-15T03:22:35.906Z,96.00
2018-01-15T03:25:06.666Z,96.00
2018-01-15T03:27:36.348Z,96.10
2018-01-15T03:30:06.685Z,95.90
2018-01-15T03:32:36.465Z,96.20
2018-01-15T03:35:06.922Z,96.00
2018-01-15T03:37:36.638Z,96.00
2018-01-15T03:40:06.357Z,96.00
2018-01-15T03:42:36.105Z,95.90
2018-01-15T03:45:05.985Z,96.20
2018-01-15T03:47:35.653Z,96.50
2018-01-15T03:50:06.248Z,96.10
2018-01-15T03:52:36.004Z,96.10
2018-01-15T03:55:05.712Z,96.10
2018-01-15T03:57:35.969Z,96.30
2018-01-15T04:00:05.673Z,96.60
2018-01-15T04:02:36.492Z,96.30
2018-01-15T04:05:06.205Z,96.50
2018-01-15T04:07:35.929Z,96.40
2018-01-15T04:10:05.638Z,96.30
2018-01-15T04:12:35.406Z,96.40
2018-01-15T04:15:05.979Z,96.30
2018-01-15T04:17:35.762Z,96.30
2018-01-15T04:20:06.533Z,96.40
2018-01-15T04:22:36.226Z,96.40
2018-01-15T04:25:05.937Z,96.40
2018-01-15T04:27:35.655Z,96.40
2018-01-15T04:30:05.359Z,96.60
2018-01-15T04:32:35.222Z,96.40
2018-01-15T04:35:05.730Z,96.10
2018-01-15T04:37:35.670Z,96.10
2018-01-15T04:40:06.156Z,96.30
2018-01-15T04:42:35.902Z,96.30
2018-01-15T04:45:06.350Z,96.30
2018-01-15T04:47:36.813Z,96.40
2018-01-15T04:50:06.572Z,96.40
2018-01-15T04:52:37.199Z,96.10
2018-01-15T04:55:07.673Z,96.10
2018-01-15T04:57:37.377Z,96.10
2018-01-15T05:00:07.077Z,95.90
2018-01-15T05:02:36.808Z,95.80
2018-01-15T05:05:06.693Z,95.70
2018-01-15T05:07:36.398Z,96.10
2018-01-15T05:10:06.141Z,95.70
2018-01-15T05:12:36.658Z,95.90
2018-01-15T05:15:06.354Z,96.10
2018-01-15T05:17:36.384Z,95.70
2018-01-15T05:20:06.092Z,95.70
2018-01-15T05:22:36.408Z,95.80
2018-01-15T05:25:06.113Z,95.90
2018-01-15T05:27:35.814Z,95.80
2018-01-15T05:30:05.547Z,96.10
2018-01-15T05:32:36.037Z,95.90
2018-01-15T05:35:06.515Z,95.80
2018-01-15T05:37:36.217Z,95.70
2018-01-15T05:40:05.973Z,95.80
2018-01-15T05:42:35.858Z,95.60
2018-01-15T05:45:05.553Z,96.00
2018-01-15T05:47:35.271Z,96.10
2018-01-15T05:50:05.164Z,95.80
2018-01-15T05:52:34.885Z,94.90
2018-01-15T05:55:04.558Z,95.10
2018-01-15T05:57:35.113Z,94.90
2018-01-15T06:00:06.294Z,94.90
2018-01-15T06:02:36.002Z,95.60
2018-01-15T06:05:05.714Z,95.20
2018-01-15T06:07:35.461Z,95.20
2018-01-15T06:10:05.922Z,95.40
2018-01-15T06:12:36.236Z,95.40
2018-01-15T06:15:05.961Z,95.60
2018-01-15T06:17:35.657Z,95.80
2018-01-15T06:20:05.359Z,95.70
2018-01-15T06:22:35.173Z,95.70
2018-01-15T06:25:04.878Z,95.40
2018-01-15T06:27:34.804Z,95.40
2018-01-15T06:30:04.526Z,95.20
2018-01-15T06:32:34.238Z,95.60
2018-01-15T06:35:03.949Z,95.20
2018-01-15T06:37:34.440Z,95.50
2018-01-15T06:40:04.172Z,95.90
2018-01-15T06:42:34.266Z,95.60
2018-01-15T06:45:04.703Z,95.50
2018-01-15T06:47:34.716Z,95.40
2018-01-15T06:50:04.467Z,95.20
2018-01-15T06:52:34.181Z,95.20
2018-01-15T06:55:03.903Z,95.70
2018-01-15T06:57:33.613Z,95.50
2018-01-15T07:00:03.360Z,95.50
2018-01-15T07:02:33.079Z,95.10
2018-01-15T07:05:02.801Z,95.50
2018-01-15T07:07:32.479Z,95.80
2018-01-15T07:10:02.947Z,95.90
2018-01-15T07:12:32.642Z,95.90
2018-01-15T07:15:02.370Z,95.30
2018-01-15T07:17:32.059Z,95.20
2018-01-15T07:20:01.772Z,95.40
2018-01-15T07:22:32.271Z,94.90
2018-01-15T07:25:02.081Z,94.90
2018-01-15T07:27:32.552Z,95.20
2018-01-15T07:30:03.142Z,95.80
2018-01-15T07:32:33.598Z,95.40
2018-01-15T07:35:03.350Z,95.40
2018-01-15T07:37:33.034Z,95.50
2018-01-15T07:40:02.773Z,95.90
2018-01-15T07:42:32.478Z,95.50
2018-01-15T07:45:02.225Z,95.80
2018-01-15T07:47:32.713Z,96.20
2018-01-15T07:50:02.411Z,96.20
2018-01-15T07:52:32.094Z,96.10
2018-01-15T07:55:01.793Z,95.50
2018-01-15T07:57:31.610Z,96.00
2018-01-15T08:00:01.330Z,95.90
2018-01-15T08:02:31.042Z,95.50
2018-01-15T08:05:01.514Z,95.60
2018-01-15T08:07:31.496Z,95.60
2018-01-15T08:10:01.198Z,94.70
2018-01-15T08:12:30.894Z,95.10
2018-01-15T08:15:00.591Z,94.80
2018-01-15T08:17:30.310Z,94.70
2018-01-15T08:20:00.001Z,95.00
2018-01-15T08:22:31.015Z,95.20
2018-01-15T08:25:00.730Z,95.20
2018-01-15T08:27:30.713Z,94.80
2018-01-15T08:30:00.434Z,95.60
2018-01-15T08:32:30.161Z,95.40
2018-01-15T08:34:59.902Z,95.60
2018-01-15T08:37:30.349Z,95.80
2018-01-15T08:40:00.070Z,95.80
2018-01-15T08:42:29.821Z,96.10
2018-01-15T08:44:59.529Z,96.00
2018-01-15T08:47:29.284Z,95.90
2018-01-15T08:49:58.996Z,96.60
2018-01-15T08:52:28.785Z,96.60
2018-01-15T08:54:59.258Z,96.90
2018-01-15T08:57:28.978Z,96.90
2018-01-15T08:59:58.761Z,96.60
2018-01-15T09:02:28.450Z,97.00
2018-01-15T09:04:58.904Z,97.40
2018-01-15T09:07:28.907Z,97.40
2018-01-15T09:09:58.621Z,97.30
2018-01-15T09:12:28.353Z,97.60
2018-01-15T09:14:58.039Z,97.70
2018-01-15T09:17:27.729Z,97.90
2018-01-15T09:19:58.551Z,98.10
2018-01-15T09:22:29.043Z,98.00
2018-01-15T09:24:58.746Z,98.00
2018-01-15T09:27:28.471Z,98.30
2018-01-15T09:29:58.210Z,98.50
2018-01-15T09:32:28.739Z,99.00
2018-01-15T09:34:59.453Z,99.10
2018-01-15T09:37:29.178Z,99.10
2018-01-15T09:39:59.622Z,99.30
2018-01-15T09:42:30.590Z,99.10
2018-01-15T09:45:00.921Z,99.10
2018-01-15T09:47:30.659Z,99.00
2018-01-15T09:50:00.603Z,99.00
2018-01-15T09:52:31.085Z,99.30
2018-01-15T09:55:00.824Z,99.20
2018-01-15T09:57:30.867Z,99.30
2018-01-15T10:00:00.566Z,99.50
2018-01-15T10:02:31.820Z,99.60
2018-01-15T10:05:02.269Z,99.70
2018-01-15T10:07:31.967Z,99.70
2018-01-15T10:10:01.688Z,99.80
2018-01-15T10:12:31.445Z,99.90
2018-01-15T10:15:01.149Z,99.90
2018-01-15T10:17:30.846Z,99.90
2018-01-15T10:20:00.537Z,99.90
2018-01-15T10:22:30.239Z,99.90
2018-01-15T10:25:00.089Z,99.90
2018-01-15T10:27:30.024Z,99.90
2018-01-15T10:30:00.526Z,99.90
2018-01-15T10:32:30.274Z,99.90
2018-01-15T10:35:01.171Z,99.90
2018-01-15T10:37:30.897Z,99.90
2018-01-15T10:40:00.554Z,99.90
2018-01-15T10:42:30.266Z,99.90
2018-01-15T10:44:59.981Z,99.90
2018-01-15T10:47:29.962Z,99.90
2018-01-15T10:50:00.422Z,99.90
2018-01-15T10:52:30.145Z,99.90
2018-01-15T10:54:59.848Z,99.90
2018-01-15T10:57:30.334Z,99.90
2018-01-15T11:00:00.788Z,99.90
2018-01-15T11:02:30.537Z,99.90
2018-01-15T11:05:00.301Z,99.90
2018-01-15T11:07:30.009Z,99.90
2018-01-15T11:09:59.705Z,99.90
2018-01-15T11:12:30.707Z,99.90
2018-01-15T11:15:01.231Z,99.90
2018-01-15T11:17:30.939Z,99.90
2018-01-15T11:20:00.828Z,99.90
2018-01-15T11:22:31.302Z,99.90
2018-01-15T11:25:01.164Z,99.90
2018-01-15T11:27:30.857Z,99.90
2018-01-15T11:30:00.552Z,99.90
2018-01-15T11:32:31.002Z,99.90
2018-01-15T11:35:00.711Z,99.90
2018-01-15T11:37:30.418Z,99.90
2018-01-15T11:40:00.150Z,99.90
2018-01-15T11:42:29.898Z,99.90
2018-01-15T11:44:59.648Z,99.90
2018-01-15T11:47:29.363Z,99.90
2018-01-15T11:49:59.046Z,99.90
2018-01-15T11:52:29.580Z,99.90
2018-01-15T11:55:00.067Z,99.90
2018-01-15T11:57:30.449Z,99.90
2018-01-15T12:00:00.170Z,99.90
2018-01-15T12:02:29.897Z,99.90
2018-01-15T12:04:59.590Z,99.90
2018-01-15T12:07:30.474Z,99.90
2018-01-15T12:10:00.199Z,99.90
2018-01-15T12:12:32.050Z,99.90
2018-01-15T12:15:01.758Z,99.90
2018-01-15T12:17:31.469Z,99.90
2018-01-15T12:20:01.169Z,99.90
2018-01-15T12:22:30.894Z,99.90
2018-01-15T12:25:00.591Z,99.90
2018-01-15T12:27:30.322Z,99.90
2018-01-15T12:30:00.854Z,99.90
2018-01-15T12:32:31.334Z,99.90
2018-01-15T12:35:01.041Z,99.90
2018-01-15T12:37:30.857Z,99.90
2018-01-15T12:40:00.766Z,99.90
2018-01-15T12:42:30.784Z,99.90
2018-01-15T12:45:01.234Z,99.90
2018-01-15T12:47:30.949Z,99.90
2018-01-15T12:50:00.665Z,99.90
2018-01-15T12:52:31.242Z,99.90
2018-01-15T12:55:00.957Z,99.90
2018-01-15T12:57:30.710Z,99.90
2018-01-15T13:00:00.486Z,99.90
2018-01-15T13:02:30.188Z,99.90
2018-01-15T13:04:59.973Z,99.90
2018-01-15T13:07:40.913Z,99.90
2018-01-15T13:10:10.642Z,99.90
2018-01-15T13:12:41.105Z,99.90
2018-01-15T13:15:10.820Z,99.90
2018-01-15T13:17:40.525Z,99.90
2018-01-15T13:20:10.230Z,99.90
2018-01-15T13:22:39.961Z,99.90
2018-01-15T13:25:09.719Z,99.90
2018-01-15T13:27:40.173Z,99.90
2018-01-15T13:30:09.952Z,99.90
2018-01-15T13:32:40.441Z,99.90
2018-01-15T13:35:10.142Z,99.90
2018-01-15T13:37:40.750Z,99.90
2018-01-15T13:40:10.438Z,99.90
2018-01-15T13:42:41.598Z,99.90
2018-01-15T13:45:11.302Z,99.90
2018-01-15T13:47:41.062Z,99.90
2018-01-15T13:50:10.807Z,99.90
2018-01-15T13:52:41.264Z,99.90
2018-01-15T13:55:11.003Z,99.90
2018-01-15T13:57:40.701Z,99.90
2018-01-15T14:00:10.432Z,99.90
2018-01-15T14:02:40.193Z,99.90
2018-01-15T14:05:10.524Z,99.90
2018-01-15T14:07:40.294Z,99.90
2018-01-15T14:10:10.061Z,99.90
2018-01-15T14:12:39.797Z,99.90
2018-01-15T14:15:09.526Z,99.90
2018-01-15T14:17:40.356Z,99.90
2018-01-15T14:20:10.154Z,99.90
2018-01-15T14:22:40.184Z,99.90
2018-01-15T14:25:10.029Z,99.90
2018-01-15T14:27:40.580Z,99.90
2018-01-15T14:30:11.384Z,99.90
2018-01-15T14:32:41.958Z,99.90
2018-01-15T14:35:12.978Z,99.90
2018-01-15T14:37:42.814Z,99.90
2018-01-15T14:40:12.645Z,99.90
2018-01-15T14:42:42.530Z,99.90
2018-01-15T14:45:12.351Z,99.90
2018-01-15T14:47:42.914Z,99.90
2018-01-15T14:50:12.931Z,99.90
2018-01-15T14:52:42.732Z,99.90
2018-01-15T14:55:12.514Z,99.90
2018-01-15T14:57:42.275Z,99.90
2018-01-15T15:00:12.581Z,99.90
2018-01-15T15:02:42.377Z,99.90
2018-01-15T15:05:12.165Z,99.90
2018-01-15T15:07:42.552Z,99.90
2018-01-15T15:10:13.101Z,99.90
2018-01-15T15:12:43.557Z,99.90
2018-01-15T15:15:13.353Z,99.90
2018-01-15T15:17:46.264Z,99.90
2018-01-15T15:20:16.564Z,99.90
2018-01-15T15:22:51.429Z,99.90
2018-01-15T15:25:21.179Z,99.90
2018-01-15T15:27:51.780Z,99.90
2018-01-15T15:30:21.586Z,99.90
2018-01-15T15:32:52.120Z,99.90
2018-01-15T15:35:22.397Z,99.90
2018-01-15T15:37:52.157Z,99.90
2018-01-15T15:40:23.797Z,99.90
2018-01-15T15:42:53.530Z,99.90
2018-01-15T15:45:23.584Z,99.90
2018-01-15T15:47:53.371Z,99.90
2018-01-15T15:50:23.877Z,99.90
2018-01-15T15:52:53.597Z,99.90
2018-01-15T15:55:23.370Z,99.90
2018-01-15T15:57:53.116Z,99.90
2018-01-15T16:00:22.876Z,99.90
2018-01-15T16:02:52.588Z,99.90
2018-01-15T16:05:22.295Z,99.90
2018-01-15T16:07:52.037Z,99.90
2018-01-15T16:10:21.756Z,99.90
2018-01-15T16:12:51.445Z,99.90
2018-01-15T16:15:21.259Z,99.90
2018-01-15T16:17:51.406Z,99.90
2018-01-15T16:20:21.444Z,99.90
2018-01-15T16:22:59.683Z,99.90
2018-01-15T16:25:30.025Z,99.90
2018-01-15T16:27:59.700Z,99.90
2018-01-15T16:30:29.414Z,99.90
2018-01-15T16:32:59.126Z,99.90
2018-01-15T16:35:28.842Z,99.90
2018-01-15T16:37:58.552Z,99.90
2018-01-15T16:40:28.273Z,99.90
2018-01-15T16:42:57.950Z,99.90
2018-01-15T16:45:28.441Z,99.90
2018-01-15T16:47:58.186Z,99.90
2018-01-15T16:50:28.706Z,99.90
2018-01-15T16:52:59.184Z,99.90
2018-01-15T16:55:28.880Z,99.90
2018-01-15T16:57:58.571Z,99.90
2018-01-15T17:00:28.296Z,99.90
2018-01-15T17:02:58.009Z,99.90
2018-01-15T17:05:27.828Z,99.90
2018-01-15T17:07:57.646Z,99.90
2018-01-15T17:10:27.346Z,99.90
2018-01-15T17:12:57.016Z,99.90
2018-01-15T17:15:27.474Z,99.90
2018-01-15T17:17:57.153Z,99.90
2018-01-15T17:20:27.949Z,99.90
2018-01-15T17:22:57.649Z,99.90
2018-01-15T17:25:27.335Z,99.90
2018-01-15T17:27:57.044Z,99.90
2018-01-15T17:30:26.737Z,99.90
2018-01-15T17:32:57.172Z,99.90
2018-01-15T17:35:26.885Z,99.90
2018-01-15T17:37:56.555Z,99.90
2018-01-15T17:40:26.466Z,99.90
2018-01-15T17:42:56.142Z,99.90
2018-01-15T17:45:26.605Z,99.90
2018-01-15T17:47:56.326Z,99.90
2018-01-15T17:50:26.801Z,99.90
2018-01-15T17:52:57.511Z,99.90
2018-01-15T17:55:27.221Z,99.90
2018-01-15T17:57:56.950Z,99.90
2018-01-15T18:00:26.673Z,99.90
2018-01-15T18:02:56.370Z,99.90
2018-01-15T18:05:26.063Z,99.90
2018-01-15T18:07:55.758Z,99.90
2018-01-15T18:10:26.198Z,99.90
2018-01-15T18:12:55.905Z,99.90
2018-01-15T18:15:25.625Z,99.90
2018-01-15T18:17:55.282Z,99.90
2018-01-15T18:20:24.971Z,99.90
2018-01-15T18:22:54.653Z,99.90
2018-01-15T18:25:24.373Z,99.90
2018-01-15T18:27:54.358Z,99.90
2018-01-15T18:30:25.192Z,99.90
2018-01-15T18:32:54.862Z,99.90
2018-01-15T18:35:24.514Z,99.90
2018-01-15T18:37:54.202Z,99.90
2018-01-15T18:40:24.642Z,99.90
2018-01-15T18:42:55.104Z,99.90
2018-01-15T18:45:24.769Z,99.90
2018-01-15T18:47:55.230Z,99.90
2018-01-15T18:50:24.926Z,99.90
2018-01-15T18:52:54.605Z,99.90
2018-01-15T18:55:25.022Z,99.90
2018-01-15T18:57:54.709Z,99.90
2018-01-15T19:00:24.381Z,99.90
2018-01-15T19:02:54.066Z,99.90
2018-01-15T19:05:24.530Z,99.90
2018-01-15T19:07:54.228Z,99.90
2018-01-15T19:10:23.912Z,99.90
2018-01-15T19:12:54.385Z,99.90
2018-01-15T19:15:24.057Z,99.90
2018-01-15T19:17:53.737Z,99.90
2018-01-15T19:20:23.428Z,99.90
2018-01-15T19:22:53.152Z,99.90
2018-01-15T19:25:22.823Z,99.90
2018-01-15T19:27:52.696Z,99.90
2018-01-15T19:30:23.298Z,99.90
2018-01-15T19:32:53.205Z,99.90
2018-01-15T19:35:24.054Z,99.90
2018-01-15T19:37:53.923Z,99.90
2018-01-15T19:40:23.844Z,99.90
2018-01-15T19:42:53.742Z,99.90
2018-01-15T19:45:28.765Z,99.90
2018-01-15T19:48:03.693Z,99.90
2018-01-15T19:50:38.726Z,99.90
2018-01-15T19:53:23.904Z,99.90
2018-01-15T19:55:58.760Z,99.90
2018-01-15T19:58:33.647Z,99.90
2018-01-15T20:01:09.277Z,99.90
2018-01-15T20:03:44.950Z,99.90
2018-01-15T20:06:20.680Z,99.90
2018-01-15T20:08:55.551Z,99.90
2018-01-15T20:11:25.453Z,99.90
2018-01-15T20:13:56.078Z,99.90
2018-01-15T20:16:26.629Z,99.90
2018-01-15T20:18:56.355Z,99.90
2018-01-15T20:21:26.035Z,99.90
2018-01-15T20:23:55.745Z,99.90
2018-01-15T20:26:26.209Z,99.90
2018-01-15T20:28:55.913Z,99.90
2018-01-15T20:31:25.616Z,99.90
2018-01-15T20:33:55.322Z,99.90
2018-01-15T20:36:25.330Z,99.90
2018-01-15T20:38:55.012Z,99.90
2018-01-15T20:41:25.438Z,99.90
2018-01-15T20:43:55.876Z,99.90
2018-01-15T20:46:26.331Z,99.90
2018-01-15T20:48:56.119Z,99.90
2018-01-15T20:51:27.530Z,99.90
2018-01-15T20:53:57.264Z,99.90
2018-01-15T20:56:27.719Z,99.90
2018-01-15T20:58:57.404Z,99.90
2018-01-15T21:01:27.835Z,99.90
2018-01-15T21:03:58.301Z,99.90
2018-01-15T21:06:28.021Z,99.90
2018-01-15T21:08:57.722Z,99.90
2018-01-15T21:11:27.436Z,99.90
2018-01-15T21:13:57.306Z,99.90
2018-01-15T21:16:27.733Z,99.90
2018-01-15T21:18:58.202Z,99.90
2018-01-15T21:21:27.872Z,99.90
2018-01-15T21:23:57.585Z,99.90
2018-01-15T21:26:27.282Z,99.90
2018-01-15T21:28:57.750Z,99.90
2018-01-15T21:31:27.451Z,99.90
2018-01-15T21:33:57.134Z,99.90
2018-01-15T21:36:27.586Z,99.90
2018-01-15T21:38:57.305Z,99.90
2018-01-15T21:41:26.992Z,99.90
2018-01-15T21:43:56.716Z,99.90
2018-01-15T21:46:26.395Z,99.90
2018-01-15T21:48:56.850Z,99.90
2018-01-15T21:51:27.038Z,99.90
2018-01-15T21:53:57.520Z,99.90
2018-01-15T21:56:27.210Z,99.90
2018-01-15T21:58:56.929Z,99.90
2018-01-15T22:01:26.617Z,99.90
2018-01-15T22:03:56.298Z,99.90
2018-01-15T22:06:26.727Z,99.90
2018-01-15T22:08:57.205Z,99.90
2018-01-15T22:11:26.905Z,99.90
2018-01-15T22:13:56.598Z,99.90
2018-01-15T22:16:27.033Z,99.90
2018-01-15T22:18:56.718Z,99.90
2018-01-15T22:21:27.161Z,99.90
2018-01-15T22:23:56.842Z,99.90
2018-01-15T22:26:27.345Z,99.90
2018-01-15T22:28:57.004Z,99.90
2018-01-15T22:31:26.716Z,99.90
2018-01-15T22:33:56.394Z,99.90
2018-01-15T22:36:26.845Z,99.90
2018-01-15T22:38:56.530Z,99.90
2018-01-15T22:41:26.990Z,99.90
2018-01-15T22:43:56.677Z,99.90
2018-01-15T22:46:27.232Z,99.90
2018-01-15T22:48:56.938Z,99.90
2018-01-15T22:51:27.143Z,99.90
2018-01-15T22:53:57.594Z,99.90
2018-01-15T22:56:27.270Z,99.90
2018-01-15T22:58:57.777Z,99.90
2018-01-15T23:01:27.476Z,99.90
2018-01-15T23:03:57.212Z,99.90
2018-01-15T23:06:27.688Z,99.90
2018-01-15T23:08:57.400Z,99.90
2018-01-15T23:11:27.118Z,99.90
2018-01-15T23:13:56.828Z,99.90
2018-01-15T23:16:26.514Z,99.90
2018-01-15T23:18:56.237Z,99.90
2018-01-15T23:21:25.932Z,99.90
2018-01-15T23:23:55.603Z,99.90
2018-01-15T23:26:26.049Z,99.90
2018-01-15T23:28:55.796Z,99.90
2018-01-15T23:31:25.460Z,99.90
2018-01-15T23:33:56.781Z,99.90
2018-01-15T23:36:26.566Z,99.90
2018-01-15T23:38:56.258Z,99.90
2018-01-15T23:41:25.918Z,99.90
2018-01-15T23:43:55.661Z,99.90
2018-01-15T23:46:26.274Z,99.90
2018-01-15T23:48:56.715Z,99.90
2018-01-15T23:51:26.485Z,99.90
2018-01-15T23:53:56.197Z,99.90
2018-01-15T23:56:25.877Z,99.90
2018-01-15T23:58:55.542Z,99.90
